Seagoville's Hourly Summary for Thursday, April 20, 2017
Hour Temp
(f)
RH
(%)
Solar Rad.
(MJ/m2)
Rainfall
(in)
Wind
(mph)
4/20/2017 12:00 AM 70 86 0 0 8.43
4/20/2017 1:00 AM 69 91 0 0 6.37
4/20/2017 2:00 AM 68 94 0 0 4.44
4/20/2017 3:00 AM 67 94 0 0 6.24
4/20/2017 4:00 AM 68 92 0 0 6.92
4/20/2017 5:00 AM 68 89 0 0 7.88
4/20/2017 6:00 AM 68 89 0 0 5.49
4/20/2017 7:00 AM 69 90 0.11 0 5.07
4/20/2017 8:00 AM 69 87 0.28 0 5.99
4/20/2017 9:00 AM 72 77 1.12 0 8.12
4/20/2017 10:00 AM 73 71 1.16 0 7.81
4/20/2017 11:00 AM 75 66 1.17 0 6.24
4/20/2017 12:00 PM 77 61 1.98 0 6.94
4/20/2017 1:00 PM 79 58 2.47 0 7.53
4/20/2017 2:00 PM 80 53 2.33 0 7.49
4/20/2017 3:00 PM 81 53 1.81 0 6.61
4/20/2017 4:00 PM 80 56 0.93 0 5.97
4/20/2017 5:00 PM 80 56 0.98 0 5.84
4/20/2017 6:00 PM 80 57 0.61 0 7.13
4/20/2017 7:00 PM 78 60 0.19 0 3.9
4/20/2017 8:00 PM 74 70 0 0 3.37
4/20/2017 9:00 PM 72 79 0 0 2.29
4/20/2017 10:00 PM 70 84 0 0 2.16
4/20/2017 11:00 PM 69 87 0 0 3.02
Data Summary 73 75 15.14 0.00 5.89